Laie, HI (96762)

10:37 PM HST on August 27, 2014 (GMT -1000)
Mililani Mauka | Change Station
CLOSE
Current Station
Personal Weather Station
Location: Mililani, HI
Elevation: 843 ft
Nearby Weather Stations
Active Advisory: High Surf Advisory

Elev 843 ft 21.48 °N, 158.00 °W | Updated 11 minutes ago

Scattered Clouds
Scattered Clouds
71.1 °F
Feels Like 74 °F
N
0.0
Wind Variable Wind from NW

Today
High -- | Low -- °F
--% Chance of Precip.
Yesterday
High -- | Low -- °F
Precip. -- in
6:13 AM 6:52 PM
Waxing Crescent, 7% visible
Pressure 29.92 in
Visibility 10.0 miles
Clouds Few 3700 ft
Scattered Clouds 4700 ft
Heat Index 74 °F
Dew Point 62 °F
Humidity 72%
Rainfall 0.00 in
Snow Depth Not available.
UV 0 out of 12
Pollen Not available.
PM2.5 Good
Flu Activity Not available.
METAR PHHI 280758Z AUTO 31003KT 10SM FEW037 SCT047 22/18 A2995 RMK AO2 SLP130 T02220179 $

More Conditions Fewer Conditions

Pressure 29.92 in
Visibility 10.0 miles
Clouds Few 3700 ft
Scattered Clouds 4700 ft
Heat Index 74 °F
Dew Point 62 °F
Humidity 72%
Rainfall 0.00 in
Snow Depth Not available.
UV 0 out of 12
Pollen Not available.
PM2.5 Good
Flu Activity Not available.
METAR PHHI 280758Z AUTO 31003KT 10SM FEW037 SCT047 22/18 A2995 RMK AO2 SLP130 T02220179 $

More Conditions Fewer Conditions

10-Day Weather Forecast

Almanac

Astronomy

Aug. 27, 2014 Rise Set
Actual Time 6:13 AM HST 6:52 PM HST
Civil Twilight 5:50 AM HST 7:15 PM HST
Nautical Twilight 5:24 AM HST 7:41 PM HST
Astronomical Twilight 4:57 AM HST 8:08 PM HST
Moon 7:59 AM HST (8/27) 8:14 PM HST (8/27)
Length of Visible Light 13h 24m
Length of Day
12h 38m
Tomorrow will be 1m 10s shorter.
Waxing Crescent, 7% of the Moon is Illuminated
Aug 28
Waxing Crescent
Sep 2
First Quarter
Sep 8
Full
Sep 15
Last Quarter
Sep 24
New

Yesterday's Extremes

State Highs State Lows

Community

WunderPhotos

Upload Photos

1,747,918 photos uploaded!

Nearby

Air Quality

  Air Quality AQ Index Pollutant
Yesterday Good
PM10
Current Good
PM2.5
Wednesday Good
OZONE
Thursday Good
OZONE

Snow Depth

Station Depth Elevation
No new snow has been reported.

Earthquake Activity

City Distance Mag. Time & Date
No recent earthquake activity has been reported nearby.
Minimum magnitude displayed is 2.5.

Coastal Water Temperatures

Place Temperature
No Stations Reporting

Nearby Weather Stations